sensor_id;sensor_type;location;lat;lon;timestamp;P1;durP1;ratioP1;P2;durP2;ratioP2
4812;SDS011;2420;51.202;8.698;2023-07-20T00:01:19;7.35;;;6.65;;
4812;SDS011;2420;51.202;8.698;2023-07-20T00:03:45;8.45;;;6.55;;
4812;SDS011;2420;51.202;8.698;2023-07-20T00:06:13;7.05;;;6.30;;
4812;SDS011;2420;51.202;8.698;2023-07-20T00:08:38;8.02;;;6.20;;
4812;SDS011;2420;51.202;8.698;2023-07-20T00:11:04;7.75;;;5.70;;
4812;SDS011;2420;51.202;8.698;2023-07-20T00:13:29;8.45;;;6.25;;
4812;SDS011;2420;51.202;8.698;2023-07-20T00:15:55;6.60;;;5.68;;
4812;SDS011;2420;51.202;8.698;2023-07-20T00:18:20;9.75;;;6.65;;
4812;SDS011;2420;51.202;8.698;2023-07-20T00:20:46;6.82;;;6.13;;
4812;SDS011;2420;51.202;8.698;2023-07-20T00:23:12;6.63;;;5.47;;
4812;SDS011;2420;51.202;8.698;2023-07-20T00:25:38;6.50;;;5.25;;
4812;SDS011;2420;51.202;8.698;2023-07-20T00:28:03;6.97;;;5.90;;
4812;SDS011;2420;51.202;8.698;2023-07-20T00:30:29;8.00;;;5.85;;
4812;SDS011;2420;51.202;8.698;2023-07-20T00:32:54;8.95;;;5.80;;
4812;SDS011;2420;51.202;8.698;2023-07-20T00:35:20;7.57;;;5.60;;
4812;SDS011;2420;51.202;8.698;2023-07-20T00:37:45;6.53;;;5.15;;
4812;SDS011;2420;51.202;8.698;2023-07-20T00:40:11;6.53;;;5.78;;
4812;SDS011;2420;51.202;8.698;2023-07-20T00:42:37;7.25;;;5.82;;
4812;SDS011;2420;51.202;8.698;2023-07-20T00:45:03;6.93;;;5.68;;
4812;SDS011;2420;51.202;8.698;2023-07-20T00:47:29;7.13;;;5.30;;
4812;SDS011;2420;51.202;8.698;2023-07-20T00:49:55;6.35;;;5.43;;
4812;SDS011;2420;51.202;8.698;2023-07-20T00:52:21;7.38;;;5.80;;
4812;SDS011;2420;51.202;8.698;2023-07-20T00:54:48;6.88;;;5.72;;
4812;SDS011;2420;51.202;8.698;2023-07-20T00:57:15;8.10;;;5.65;;
4812;SDS011;2420;51.202;8.698;2023-07-20T00:59:41;6.07;;;5.25;;
4812;SDS011;2420;51.202;8.698;2023-07-20T01:02:07;5.70;;;5.10;;
4812;SDS011;2420;51.202;8.698;2023-07-20T01:04:33;6.97;;;5.47;;
4812;SDS011;2420;51.202;8.698;2023-07-20T01:07:03;10.45;;;5.35;;
4812;SDS011;2420;51.202;8.698;2023-07-20T01:12:54;7.05;;;4.60;;
4812;SDS011;2420;51.202;8.698;2023-07-20T01:15:20;5.53;;;4.72;;
4812;SDS011;2420;51.202;8.698;2023-07-20T01:17:46;6.63;;;4.43;;
4812;SDS011;2420;51.202;8.698;2023-07-20T01:20:15;6.35;;;4.68;;
4812;SDS011;2420;51.202;8.698;2023-07-20T01:28:48;7.53;;;4.20;;
4812;SDS011;2420;51.202;8.698;2023-07-20T01:31:21;6.30;;;4.50;;
4812;SDS011;2420;51.202;8.698;2023-07-20T01:33:47;5.63;;;4.00;;
4812;SDS011;2420;51.202;8.698;2023-07-20T01:36:16;5.07;;;4.00;;
4812;SDS011;2420;51.202;8.698;2023-07-20T01:38:43;6.97;;;3.72;;
4812;SDS011;2420;51.202;8.698;2023-07-20T01:41:09;5.60;;;3.72;;
4812;SDS011;2420;51.202;8.698;2023-07-20T01:43:36;7.57;;;4.00;;
4812;SDS011;2420;51.202;8.698;2023-07-20T01:46:01;6.28;;;4.00;;
4812;SDS011;2420;51.202;8.698;2023-07-20T01:48:27;5.88;;;4.03;;
4812;SDS011;2420;51.202;8.698;2023-07-20T01:50:52;6.13;;;4.25;;
4812;SDS011;2420;51.202;8.698;2023-07-20T01:53:18;5.68;;;4.47;;
4812;SDS011;2420;51.202;8.698;2023-07-20T01:55:44;6.50;;;4.90;;
4812;SDS011;2420;51.202;8.698;2023-07-20T01:58:10;5.50;;;4.80;;
4812;SDS011;2420;51.202;8.698;2023-07-20T02:00:36;5.88;;;5.03;;
4812;SDS011;2420;51.202;8.698;2023-07-20T02:03:03;6.88;;;4.78;;
4812;SDS011;2420;51.202;8.698;2023-07-20T02:05:29;6.75;;;5.00;;
4812;SDS011;2420;51.202;8.698;2023-07-20T02:07:55;7.50;;;4.95;;
4812;SDS011;2420;51.202;8.698;2023-07-20T02:10:20;6.43;;;5.40;;
4812;SDS011;2420;51.202;8.698;2023-07-20T02:12:46;6.25;;;4.97;;
4812;SDS011;2420;51.202;8.698;2023-07-20T02:15:12;6.53;;;5.60;;
4812;SDS011;2420;51.202;8.698;2023-07-20T02:17:41;6.97;;;5.65;;
4812;SDS011;2420;51.202;8.698;2023-07-20T02:20:07;6.07;;;5.47;;
4812;SDS011;2420;51.202;8.698;2023-07-20T02:22:36;6.88;;;5.80;;
4812;SDS011;2420;51.202;8.698;2023-07-20T02:25:06;7.35;;;5.35;;
4812;SDS011;2420;51.202;8.698;2023-07-20T02:27:36;6.68;;;5.40;;
4812;SDS011;2420;51.202;8.698;2023-07-20T02:30:02;6.95;;;5.38;;
4812;SDS011;2420;51.202;8.698;2023-07-20T02:32:28;6.28;;;5.40;;
4812;SDS011;2420;51.202;8.698;2023-07-20T02:34:54;8.05;;;5.28;;
4812;SDS011;2420;51.202;8.698;2023-07-20T02:37:20;5.97;;;5.13;;
4812;SDS011;2420;51.202;8.698;2023-07-20T02:39:45;7.10;;;5.45;;
4812;SDS011;2420;51.202;8.698;2023-07-20T02:42:11;6.70;;;5.18;;
4812;SDS011;2420;51.202;8.698;2023-07-20T02:44:36;7.18;;;5.47;;
4812;SDS011;2420;51.202;8.698;2023-07-20T02:47:02;7.35;;;5.40;;
4812;SDS011;2420;51.202;8.698;2023-07-20T02:49:27;5.47;;;4.88;;
4812;SDS011;2420;51.202;8.698;2023-07-20T02:51:53;9.23;;;5.82;;
4812;SDS011;2420;51.202;8.698;2023-07-20T02:54:19;8.57;;;6.20;;
4812;SDS011;2420;51.202;8.698;2023-07-20T02:56:45;8.60;;;6.65;;
4812;SDS011;2420;51.202;8.698;2023-07-20T02:59:11;9.25;;;6.47;;
4812;SDS011;2420;51.202;8.698;2023-07-20T03:01:36;8.70;;;7.40;;
4812;SDS011;2420;51.202;8.698;2023-07-20T03:04:02;9.00;;;7.20;;
4812;SDS011;2420;51.202;8.698;2023-07-20T03:06:29;11.27;;;8.13;;
4812;SDS011;2420;51.202;8.698;2023-07-20T03:08:54;9.75;;;7.78;;
4812;SDS011;2420;51.202;8.698;2023-07-20T03:11:20;10.52;;;7.32;;
4812;SDS011;2420;51.202;8.698;2023-07-20T03:13:46;10.77;;;8.25;;
4812;SDS011;2420;51.202;8.698;2023-07-20T03:16:12;10.13;;;7.70;;
4812;SDS011;2420;51.202;8.698;2023-07-20T03:18:40;9.57;;;7.60;;
4812;SDS011;2420;51.202;8.698;2023-07-20T03:21:07;12.73;;;9.07;;
4812;SDS011;2420;51.202;8.698;2023-07-20T03:23:36;9.23;;;7.88;;
4812;SDS011;2420;51.202;8.698;2023-07-20T03:26:01;10.13;;;8.48;;
4812;SDS011;2420;51.202;8.698;2023-07-20T03:28:27;11.93;;;8.93;;
4812;SDS011;2420;51.202;8.698;2023-07-20T03:30:56;11.30;;;9.20;;
4812;SDS011;2420;51.202;8.698;2023-07-20T03:33:24;11.45;;;9.52;;
4812;SDS011;2420;51.202;8.698;2023-07-20T03:35:51;11.13;;;9.95;;
4812;SDS011;2420;51.202;8.698;2023-07-20T03:38:16;12.80;;;9.90;;
4812;SDS011;2420;51.202;8.698;2023-07-20T03:40:52;11.90;;;9.20;;
4812;SDS011;2420;51.202;8.698;2023-07-20T03:43:19;11.30;;;9.38;;
4812;SDS011;2420;51.202;8.698;2023-07-20T03:45:45;10.85;;;9.15;;
4812;SDS011;2420;51.202;8.698;2023-07-20T03:48:12;12.15;;;8.82;;
4812;SDS011;2420;51.202;8.698;2023-07-20T03:50:38;11.30;;;8.93;;
4812;SDS011;2420;51.202;8.698;2023-07-20T03:53:04;12.38;;;8.93;;
4812;SDS011;2420;51.202;8.698;2023-07-20T03:55:30;10.32;;;8.02;;
4812;SDS011;2420;51.202;8.698;2023-07-20T03:57:55;10.57;;;8.70;;
4812;SDS011;2420;51.202;8.698;2023-07-20T04:00:21;12.57;;;8.23;;
4812;SDS011;2420;51.202;8.698;2023-07-20T04:02:47;11.10;;;7.95;;
4812;SDS011;2420;51.202;8.698;2023-07-20T04:05:12;9.02;;;7.82;;
4812;SDS011;2420;51.202;8.698;2023-07-20T04:07:38;13.18;;;7.97;;
4812;SDS011;2420;51.202;8.698;2023-07-20T04:10:03;9.43;;;7.78;;
4812;SDS011;2420;51.202;8.698;2023-07-20T04:12:29;9.65;;;7.28;;
4812;SDS011;2420;51.202;8.698;2023-07-20T04:14:55;8.23;;;6.85;;
4812;SDS011;2420;51.202;8.698;2023-07-20T04:17:20;10.23;;;6.82;;
4812;SDS011;2420;51.202;8.698;2023-07-20T04:19:46;7.90;;;6.43;;
4812;SDS011;2420;51.202;8.698;2023-07-20T04:22:11;9.20;;;6.68;;
4812;SDS011;2420;51.202;8.698;2023-07-20T04:24:37;10.90;;;6.75;;
4812;SDS011;2420;51.202;8.698;2023-07-20T04:27:02;8.32;;;7.05;;
4812;SDS011;2420;51.202;8.698;2023-07-20T04:29:28;10.40;;;6.60;;
4812;SDS011;2420;51.202;8.698;2023-07-20T04:31:54;7.50;;;6.68;;
4812;SDS011;2420;51.202;8.698;2023-07-20T04:34:19;7.70;;;6.53;;
4812;SDS011;2420;51.202;8.698;2023-07-20T04:36:45;8.70;;;6.10;;
4812;SDS011;2420;51.202;8.698;2023-07-20T04:39:10;6.97;;;5.55;;
4812;SDS011;2420;51.202;8.698;2023-07-20T04:41:37;7.32;;;5.72;;
4812;SDS011;2420;51.202;8.698;2023-07-20T04:44:02;7.85;;;5.70;;
4812;SDS011;2420;51.202;8.698;2023-07-20T04:46:28;7.93;;;6.13;;
4812;SDS011;2420;51.202;8.698;2023-07-20T04:48:53;7.10;;;6.38;;
4812;SDS011;2420;51.202;8.698;2023-07-20T04:51:19;6.88;;;5.97;;
4812;SDS011;2420;51.202;8.698;2023-07-20T04:53:45;8.80;;;6.15;;
4812;SDS011;2420;51.202;8.698;2023-07-20T04:56:12;7.32;;;5.93;;
4812;SDS011;2420;51.202;8.698;2023-07-20T04:58:38;5.90;;;5.22;;
4812;SDS011;2420;51.202;8.698;2023-07-20T05:01:03;6.20;;;4.85;;
4812;SDS011;2420;51.202;8.698;2023-07-20T05:03:29;5.95;;;4.88;;
4812;SDS011;2420;51.202;8.698;2023-07-20T05:05:54;5.82;;;4.57;;
4812;SDS011;2420;51.202;8.698;2023-07-20T05:08:20;7.40;;;5.00;;
4812;SDS011;2420;51.202;8.698;2023-07-20T05:10:47;5.18;;;4.65;;
4812;SDS011;2420;51.202;8.698;2023-07-20T05:13:13;5.10;;;4.65;;
4812;SDS011;2420;51.202;8.698;2023-07-20T05:15:39;6.78;;;4.38;;
4812;SDS011;2420;51.202;8.698;2023-07-20T05:18:04;5.45;;;4.25;;
4812;SDS011;2420;51.202;8.698;2023-07-20T05:20:30;5.60;;;4.00;;
4812;SDS011;2420;51.202;8.698;2023-07-20T05:22:58;3.53;;;3.22;;
4812;SDS011;2420;51.202;8.698;2023-07-20T05:25:24;3.20;;;2.90;;
4812;SDS011;2420;51.202;8.698;2023-07-20T05:27:49;3.92;;;2.80;;
4812;SDS011;2420;51.202;8.698;2023-07-20T05:30:15;4.63;;;3.25;;
4812;SDS011;2420;51.202;8.698;2023-07-20T05:32:41;5.30;;;3.90;;
4812;SDS011;2420;51.202;8.698;2023-07-20T05:35:07;5.05;;;4.50;;
4812;SDS011;2420;51.202;8.698;2023-07-20T05:37:33;6.05;;;5.45;;
4812;SDS011;2420;51.202;8.698;2023-07-20T05:39:59;8.90;;;6.28;;
4812;SDS011;2420;51.202;8.698;2023-07-20T05:42:25;8.48;;;5.78;;
4812;SDS011;2420;51.202;8.698;2023-07-20T05:44:50;8.93;;;6.63;;
4812;SDS011;2420;51.202;8.698;2023-07-20T05:47:17;7.35;;;6.47;;
4812;SDS011;2420;51.202;8.698;2023-07-20T05:49:43;8.40;;;7.20;;
4812;SDS011;2420;51.202;8.698;2023-07-20T05:52:09;9.02;;;7.40;;
4812;SDS011;2420;51.202;8.698;2023-07-20T05:54:34;7.95;;;7.15;;
4812;SDS011;2420;51.202;8.698;2023-07-20T05:57:00;9.40;;;7.30;;
4812;SDS011;2420;51.202;8.698;2023-07-20T05:59:26;9.00;;;7.55;;
4812;SDS011;2420;51.202;8.698;2023-07-20T06:01:54;9.05;;;7.63;;
4812;SDS011;2420;51.202;8.698;2023-07-20T06:04:20;9.63;;;8.07;;
4812;SDS011;2420;51.202;8.698;2023-07-20T06:06:45;10.98;;;8.50;;
4812;SDS011;2420;51.202;8.698;2023-07-20T06:09:11;8.98;;;7.60;;
4812;SDS011;2420;51.202;8.698;2023-07-20T06:11:37;9.10;;;7.57;;
4812;SDS011;2420;51.202;8.698;2023-07-20T06:14:03;10.77;;;7.45;;
4812;SDS011;2420;51.202;8.698;2023-07-20T06:16:29;9.13;;;7.57;;
4812;SDS011;2420;51.202;8.698;2023-07-20T06:18:55;12.68;;;8.13;;
4812;SDS011;2420;51.202;8.698;2023-07-20T06:21:21;9.75;;;7.97;;
4812;SDS011;2420;51.202;8.698;2023-07-20T06:23:46;11.13;;;7.38;;
4812;SDS011;2420;51.202;8.698;2023-07-20T06:26:12;8.73;;;6.65;;
4812;SDS011;2420;51.202;8.698;2023-07-20T06:28:37;9.57;;;7.63;;
4812;SDS011;2420;51.202;8.698;2023-07-20T06:31:03;10.48;;;7.30;;
4812;SDS011;2420;51.202;8.698;2023-07-20T06:33:29;9.05;;;6.18;;
4812;SDS011;2420;51.202;8.698;2023-07-20T06:35:54;9.95;;;6.72;;
4812;SDS011;2420;51.202;8.698;2023-07-20T06:38:21;8.10;;;6.47;;
4812;SDS011;2420;51.202;8.698;2023-07-20T06:40:48;7.40;;;6.28;;
4812;SDS011;2420;51.202;8.698;2023-07-20T06:43:14;9.20;;;6.63;;
4812;SDS011;2420;51.202;8.698;2023-07-20T06:45:40;9.38;;;6.47;;
4812;SDS011;2420;51.202;8.698;2023-07-20T06:48:06;7.47;;;5.93;;
4812;SDS011;2420;51.202;8.698;2023-07-20T06:50:31;7.88;;;5.68;;
4812;SDS011;2420;51.202;8.698;2023-07-20T06:52:57;7.07;;;6.32;;
4812;SDS011;2420;51.202;8.698;2023-07-20T06:55:23;6.07;;;5.25;;
4812;SDS011;2420;51.202;8.698;2023-07-20T06:57:49;6.93;;;5.63;;
4812;SDS011;2420;51.202;8.698;2023-07-20T07:00:15;7.78;;;5.68;;
4812;SDS011;2420;51.202;8.698;2023-07-20T07:02:41;6.20;;;5.38;;
4812;SDS011;2420;51.202;8.698;2023-07-20T07:05:07;6.22;;;5.30;;
4812;SDS011;2420;51.202;8.698;2023-07-20T07:07:32;5.70;;;4.97;;
4812;SDS011;2420;51.202;8.698;2023-07-20T07:09:58;11.30;;;5.45;;
4812;SDS011;2420;51.202;8.698;2023-07-20T07:12:24;6.30;;;5.03;;
4812;SDS011;2420;51.202;8.698;2023-07-20T07:14:50;7.43;;;5.30;;
4812;SDS011;2420;51.202;8.698;2023-07-20T07:17:16;6.13;;;5.43;;
4812;SDS011;2420;51.202;8.698;2023-07-20T07:19:41;7.38;;;5.53;;
4812;SDS011;2420;51.202;8.698;2023-07-20T07:22:07;9.38;;;6.10;;
4812;SDS011;2420;51.202;8.698;2023-07-20T07:24:32;5.85;;;4.80;;
4812;SDS011;2420;51.202;8.698;2023-07-20T07:27:01;5.30;;;3.92;;
4812;SDS011;2420;51.202;8.698;2023-07-20T07:29:27;4.00;;;3.60;;
4812;SDS011;2420;51.202;8.698;2023-07-20T07:31:52;3.72;;;2.92;;
4812;SDS011;2420;51.202;8.698;2023-07-20T07:34:18;4.15;;;2.60;;
4812;SDS011;2420;51.202;8.698;2023-07-20T07:36:43;3.28;;;2.63;;
4812;SDS011;2420;51.202;8.698;2023-07-20T07:39:10;3.13;;;2.83;;
4812;SDS011;2420;51.202;8.698;2023-07-20T07:41:35;3.00;;;2.65;;
4812;SDS011;2420;51.202;8.698;2023-07-20T07:44:01;4.13;;;2.60;;
4812;SDS011;2420;51.202;8.698;2023-07-20T07:46:26;2.97;;;2.60;;
4812;SDS011;2420;51.202;8.698;2023-07-20T07:48:52;3.55;;;2.70;;
4812;SDS011;2420;51.202;8.698;2023-07-20T07:51:18;2.90;;;2.60;;
4812;SDS011;2420;51.202;8.698;2023-07-20T07:53:45;2.90;;;2.35;;
4812;SDS011;2420;51.202;8.698;2023-07-20T07:56:11;2.97;;;2.58;;
4812;SDS011;2420;51.202;8.698;2023-07-20T07:58:37;2.85;;;2.40;;
4812;SDS011;2420;51.202;8.698;2023-07-20T08:01:02;2.50;;;2.30;;
4812;SDS011;2420;51.202;8.698;2023-07-20T08:03:28;2.85;;;2.22;;
4812;SDS011;2420;51.202;8.698;2023-07-20T08:05:54;2.78;;;2.13;;
4812;SDS011;2420;51.202;8.698;2023-07-20T08:08:24;2.00;;;1.80;;
4812;SDS011;2420;51.202;8.698;2023-07-20T08:10:53;2.45;;;2.03;;
4812;SDS011;2420;51.202;8.698;2023-07-20T08:13:20;2.08;;;1.80;;
4812;SDS011;2420;51.202;8.698;2023-07-20T08:15:46;2.65;;;2.00;;
4812;SDS011;2420;51.202;8.698;2023-07-20T08:18:15;2.65;;;1.90;;
4812;SDS011;2420;51.202;8.698;2023-07-20T08:20:43;2.00;;;1.70;;
4812;SDS011;2420;51.202;8.698;2023-07-20T08:23:09;2.45;;;2.10;;
4812;SDS011;2420;51.202;8.698;2023-07-20T08:25:36;2.38;;;2.17;;
4812;SDS011;2420;51.202;8.698;2023-07-20T08:28:04;3.60;;;2.13;;
4812;SDS011;2420;51.202;8.698;2023-07-20T08:30:39;2.30;;;2.10;;
4812;SDS011;2420;51.202;8.698;2023-07-20T08:33:09;3.17;;;2.60;;
4812;SDS011;2420;51.202;8.698;2023-07-20T08:35:36;2.80;;;2.50;;
4812;SDS011;2420;51.202;8.698;2023-07-20T08:38:01;2.67;;;2.40;;
4812;SDS011;2420;51.202;8.698;2023-07-20T08:40:29;2.50;;;2.30;;
4812;SDS011;2420;51.202;8.698;2023-07-20T08:42:56;4.38;;;2.40;;
4812;SDS011;2420;51.202;8.698;2023-07-20T08:45:24;2.25;;;2.05;;
4812;SDS011;2420;51.202;8.698;2023-07-20T08:47:53;3.53;;;2.33;;
4812;SDS011;2420;51.202;8.698;2023-07-20T08:50:20;2.38;;;2.13;;
4812;SDS011;2420;51.202;8.698;2023-07-20T08:52:47;2.42;;;2.17;;
4812;SDS011;2420;51.202;8.698;2023-07-20T08:55:15;2.80;;;2.38;;
4812;SDS011;2420;51.202;8.698;2023-07-20T08:57:40;2.40;;;2.20;;
4812;SDS011;2420;51.202;8.698;2023-07-20T09:00:10;2.35;;;2.15;;
4812;SDS011;2420;51.202;8.698;2023-07-20T09:02:38;2.70;;;2.05;;
4812;SDS011;2420;51.202;8.698;2023-07-20T09:05:08;2.35;;;2.15;;
4812;SDS011;2420;51.202;8.698;2023-07-20T09:07:39;2.63;;;2.13;;
4812;SDS011;2420;51.202;8.698;2023-07-20T09:10:05;2.35;;;2.15;;
4812;SDS011;2420;51.202;8.698;2023-07-20T09:12:34;2.88;;;2.55;;
4812;SDS011;2420;51.202;8.698;2023-07-20T09:15:00;2.25;;;2.05;;
4812;SDS011;2420;51.202;8.698;2023-07-20T09:17:26;2.70;;;2.50;;
4812;SDS011;2420;51.202;8.698;2023-07-20T09:19:52;4.55;;;4.15;;
4812;SDS011;2420;51.202;8.698;2023-07-20T09:22:17;3.35;;;2.47;;
4812;SDS011;2420;51.202;8.698;2023-07-20T09:24:43;2.55;;;2.30;;
4812;SDS011;2420;51.202;8.698;2023-07-20T09:27:09;2.40;;;2.20;;
4812;SDS011;2420;51.202;8.698;2023-07-20T09:29:42;3.03;;;2.72;;
4812;SDS011;2420;51.202;8.698;2023-07-20T09:32:13;2.63;;;2.42;;
4812;SDS011;2420;51.202;8.698;2023-07-20T09:34:43;3.05;;;2.75;;
4812;SDS011;2420;51.202;8.698;2023-07-20T09:37:09;2.70;;;2.50;;
4812;SDS011;2420;51.202;8.698;2023-07-20T09:39:41;3.40;;;2.30;;
4812;SDS011;2420;51.202;8.698;2023-07-20T09:42:13;2.50;;;2.30;;
4812;SDS011;2420;51.202;8.698;2023-07-20T09:44:40;2.25;;;1.95;;
4812;SDS011;2420;51.202;8.698;2023-07-20T09:47:08;2.13;;;1.98;;
4812;SDS011;2420;51.202;8.698;2023-07-20T09:49:38;2.28;;;2.08;;
4812;SDS011;2420;51.202;8.698;2023-07-20T09:52:06;2.65;;;2.28;;
4812;SDS011;2420;51.202;8.698;2023-07-20T09:54:33;2.28;;;2.08;;
4812;SDS011;2420;51.202;8.698;2023-07-20T09:56:58;2.40;;;2.20;;
4812;SDS011;2420;51.202;8.698;2023-07-20T09:59:27;2.50;;;2.30;;
4812;SDS011;2420;51.202;8.698;2023-07-20T10:01:53;2.20;;;2.00;;
4812;SDS011;2420;51.202;8.698;2023-07-20T10:04:21;2.30;;;2.05;;
4812;SDS011;2420;51.202;8.698;2023-07-20T10:06:48;1.80;;;1.70;;
4812;SDS011;2420;51.202;8.698;2023-07-20T10:09:17;1.90;;;1.80;;
4812;SDS011;2420;51.202;8.698;2023-07-20T10:11:45;2.35;;;1.75;;
4812;SDS011;2420;51.202;8.698;2023-07-20T10:14:16;1.60;;;1.50;;
4812;SDS011;2420;51.202;8.698;2023-07-20T10:16:51;1.85;;;1.67;;
4812;SDS011;2420;51.202;8.698;2023-07-20T10:19:23;1.60;;;1.50;;
4812;SDS011;2420;51.202;8.698;2023-07-20T10:22:00;1.85;;;1.55;;
4812;SDS011;2420;51.202;8.698;2023-07-20T10:24:32;1.50;;;1.40;;
4812;SDS011;2420;51.202;8.698;2023-07-20T10:26:59;1.70;;;1.60;;
4812;SDS011;2420;51.202;8.698;2023-07-20T10:29:25;1.70;;;1.60;;
4812;SDS011;2420;51.202;8.698;2023-07-20T10:31:52;1.92;;;1.40;;
4812;SDS011;2420;51.202;8.698;2023-07-20T10:34:19;1.40;;;1.30;;
4812;SDS011;2420;51.202;8.698;2023-07-20T10:36:46;1.90;;;1.70;;
4812;SDS011;2420;51.202;8.698;2023-07-20T10:42:12;2.38;;;1.85;;
4812;SDS011;2420;51.202;8.698;2023-07-20T10:44:37;3.15;;;1.60;;
4812;SDS011;2420;51.202;8.698;2023-07-20T10:47:11;2.25;;;1.80;;
4812;SDS011;2420;51.202;8.698;2023-07-20T10:49:57;1.90;;;1.70;;
4812;SDS011;2420;51.202;8.698;2023-07-20T10:52:24;2.45;;;1.73;;
4812;SDS011;2420;51.202;8.698;2023-07-20T10:54:50;1.48;;;1.33;;
4812;SDS011;2420;51.202;8.698;2023-07-20T10:57:28;1.60;;;1.50;;
4812;SDS011;2420;51.202;8.698;2023-07-20T11:02:54;1.98;;;1.52;;
4812;SDS011;2420;51.202;8.698;2023-07-20T11:05:34;1.60;;;1.50;;
4812;SDS011;2420;51.202;8.698;2023-07-20T11:08:04;1.63;;;1.52;;
4812;SDS011;2420;51.202;8.698;2023-07-20T11:10:31;1.75;;;1.40;;
4812;SDS011;2420;51.202;8.698;2023-07-20T11:18:26;1.63;;;1.52;;
4812;SDS011;2420;51.202;8.698;2023-07-20T11:20:52;1.83;;;1.52;;
4812;SDS011;2420;51.202;8.698;2023-07-20T11:23:21;1.77;;;1.67;;
4812;SDS011;2420;51.202;8.698;2023-07-20T11:25:47;1.60;;;1.50;;
4812;SDS011;2420;51.202;8.698;2023-07-20T11:28:13;1.52;;;1.42;;
4812;SDS011;2420;51.202;8.698;2023-07-20T11:30:39;1.80;;;1.40;;
4812;SDS011;2420;51.202;8.698;2023-07-20T11:33:05;1.80;;;1.70;;
4812;SDS011;2420;51.202;8.698;2023-07-20T11:35:36;1.80;;;1.30;;
4812;SDS011;2420;51.202;8.698;2023-07-20T11:38:08;1.70;;;1.60;;
4812;SDS011;2420;51.202;8.698;2023-07-20T11:40:33;2.65;;;1.65;;
4812;SDS011;2420;51.202;8.698;2023-07-20T11:42:59;1.60;;;1.50;;
4812;SDS011;2420;51.202;8.698;2023-07-20T11:45:25;1.60;;;1.50;;
4812;SDS011;2420;51.202;8.698;2023-07-20T11:47:52;2.47;;;1.60;;
4812;SDS011;2420;51.202;8.698;2023-07-20T11:50:18;2.33;;;1.70;;
4812;SDS011;2420;51.202;8.698;2023-07-20T11:52:43;1.88;;;1.70;;
4812;SDS011;2420;51.202;8.698;2023-07-20T11:55:09;2.38;;;1.75;;
4812;SDS011;2420;51.202;8.698;2023-07-20T11:57:36;1.70;;;1.60;;
4812;SDS011;2420;51.202;8.698;2023-07-20T12:00:03;1.75;;;1.65;;
4812;SDS011;2420;51.202;8.698;2023-07-20T12:02:34;1.50;;;1.40;;
4812;SDS011;2420;51.202;8.698;2023-07-20T12:05:00;1.80;;;1.70;;
4812;SDS011;2420;51.202;8.698;2023-07-20T12:07:27;1.60;;;1.50;;
4812;SDS011;2420;51.202;8.698;2023-07-20T12:10:03;1.77;;;1.60;;
4812;SDS011;2420;51.202;8.698;2023-07-20T12:12:33;1.58;;;1.48;;
4812;SDS011;2420;51.202;8.698;2023-07-20T12:15:12;1.52;;;1.30;;
4812;SDS011;2420;51.202;8.698;2023-07-20T12:17:45;2.28;;;2.08;;
4812;SDS011;2420;51.202;8.698;2023-07-20T12:20:11;2.03;;;1.70;;
4812;SDS011;2420;51.202;8.698;2023-07-20T12:22:38;1.58;;;1.30;;
4812;SDS011;2420;51.202;8.698;2023-07-20T12:25:08;1.40;;;1.30;;
4812;SDS011;2420;51.202;8.698;2023-07-20T12:27:37;2.20;;;1.35;;
4812;SDS011;2420;51.202;8.698;2023-07-20T12:30:05;1.90;;;1.60;;
4812;SDS011;2420;51.202;8.698;2023-07-20T12:32:33;3.28;;;2.22;;
4812;SDS011;2420;51.202;8.698;2023-07-20T12:34:59;3.65;;;3.30;;
4812;SDS011;2420;51.202;8.698;2023-07-20T12:37:25;12.55;;;10.70;;
4812;SDS011;2420;51.202;8.698;2023-07-20T12:39:51;6.25;;;4.63;;
4812;SDS011;2420;51.202;8.698;2023-07-20T12:42:17;2.60;;;2.40;;
4812;SDS011;2420;51.202;8.698;2023-07-20T12:44:43;1.70;;;1.45;;
4812;SDS011;2420;51.202;8.698;2023-07-20T12:47:08;1.85;;;1.42;;
4812;SDS011;2420;51.202;8.698;2023-07-20T12:49:34;2.30;;;1.30;;
4812;SDS011;2420;51.202;8.698;2023-07-20T12:51:59;1.70;;;1.60;;
4812;SDS011;2420;51.202;8.698;2023-07-20T12:54:25;1.55;;;1.45;;
4812;SDS011;2420;51.202;8.698;2023-07-20T12:56:50;1.42;;;1.33;;
4812;SDS011;2420;51.202;8.698;2023-07-20T12:59:16;1.40;;;1.27;;
4812;SDS011;2420;51.202;8.698;2023-07-20T13:01:41;1.90;;;1.30;;
4812;SDS011;2420;51.202;8.698;2023-07-20T13:04:08;2.40;;;2.10;;
4812;SDS011;2420;51.202;8.698;2023-07-20T13:06:35;2.72;;;2.17;;
4812;SDS011;2420;51.202;8.698;2023-07-20T13:09:01;1.92;;;1.70;;
4812;SDS011;2420;51.202;8.698;2023-07-20T13:11:27;2.25;;;1.98;;
4812;SDS011;2420;51.202;8.698;2023-07-20T13:13:52;1.63;;;1.40;;
4812;SDS011;2420;51.202;8.698;2023-07-20T13:16:18;2.10;;;1.45;;
4812;SDS011;2420;51.202;8.698;2023-07-20T13:18:43;1.50;;;1.40;;
4812;SDS011;2420;51.202;8.698;2023-07-20T13:21:09;1.85;;;1.33;;
4812;SDS011;2420;51.202;8.698;2023-07-20T13:23:39;1.75;;;1.42;;
4812;SDS011;2420;51.202;8.698;2023-07-20T13:26:04;2.00;;;1.70;;
4812;SDS011;2420;51.202;8.698;2023-07-20T13:28:30;1.83;;;1.63;;
4812;SDS011;2420;51.202;8.698;2023-07-20T13:30:56;1.50;;;1.40;;
4812;SDS011;2420;51.202;8.698;2023-07-20T13:33:21;2.85;;;1.40;;
4812;SDS011;2420;51.202;8.698;2023-07-20T13:35:47;2.10;;;1.30;;
4812;SDS011;2420;51.202;8.698;2023-07-20T13:38:12;1.30;;;1.20;;
4812;SDS011;2420;51.202;8.698;2023-07-20T13:40:38;1.50;;;1.40;;
4812;SDS011;2420;51.202;8.698;2023-07-20T13:43:04;1.30;;;1.20;;
4812;SDS011;2420;51.202;8.698;2023-07-20T13:45:29;1.40;;;1.30;;
4812;SDS011;2420;51.202;8.698;2023-07-20T13:47:55;1.50;;;1.40;;
4812;SDS011;2420;51.202;8.698;2023-07-20T13:50:20;1.83;;;1.30;;
4812;SDS011;2420;51.202;8.698;2023-07-20T13:52:46;3.03;;;1.40;;
4812;SDS011;2420;51.202;8.698;2023-07-20T13:55:12;1.70;;;1.50;;
4812;SDS011;2420;51.202;8.698;2023-07-20T13:57:38;4.35;;;1.50;;
4812;SDS011;2420;51.202;8.698;2023-07-20T14:00:04;1.95;;;1.75;;
4812;SDS011;2420;51.202;8.698;2023-07-20T14:02:30;2.15;;;1.50;;
4812;SDS011;2420;51.202;8.698;2023-07-20T14:04:55;1.77;;;1.50;;
4812;SDS011;2420;51.202;8.698;2023-07-20T14:07:22;1.92;;;1.73;;
4812;SDS011;2420;51.202;8.698;2023-07-20T14:09:47;1.73;;;1.50;;
4812;SDS011;2420;51.202;8.698;2023-07-20T14:12:13;1.90;;;1.60;;
4812;SDS011;2420;51.202;8.698;2023-07-20T14:14:39;1.80;;;1.67;;
4812;SDS011;2420;51.202;8.698;2023-07-20T14:17:06;2.33;;;1.50;;
4812;SDS011;2420;51.202;8.698;2023-07-20T14:19:32;2.58;;;1.63;;
4812;SDS011;2420;51.202;8.698;2023-07-20T14:21:57;1.65;;;1.40;;
4812;SDS011;2420;51.202;8.698;2023-07-20T14:24:24;1.50;;;1.40;;
4812;SDS011;2420;51.202;8.698;2023-07-20T14:26:53;1.50;;;1.40;;
4812;SDS011;2420;51.202;8.698;2023-07-20T14:29:19;1.60;;;1.50;;
4812;SDS011;2420;51.202;8.698;2023-07-20T14:31:45;2.15;;;1.67;;
4812;SDS011;2420;51.202;8.698;2023-07-20T14:34:15;1.50;;;1.40;;
4812;SDS011;2420;51.202;8.698;2023-07-20T14:36:44;1.60;;;1.50;;
4812;SDS011;2420;51.202;8.698;2023-07-20T14:39:10;2.25;;;1.58;;
4812;SDS011;2420;51.202;8.698;2023-07-20T14:41:35;1.70;;;1.60;;
4812;SDS011;2420;51.202;8.698;2023-07-20T14:44:02;1.63;;;1.40;;
4812;SDS011;2420;51.202;8.698;2023-07-20T14:46:27;1.48;;;1.38;;
4812;SDS011;2420;51.202;8.698;2023-07-20T14:48:53;1.60;;;1.50;;
4812;SDS011;2420;51.202;8.698;2023-07-20T14:51:18;1.50;;;1.40;;
4812;SDS011;2420;51.202;8.698;2023-07-20T14:53:44;1.60;;;1.50;;
4812;SDS011;2420;51.202;8.698;2023-07-20T14:56:10;1.63;;;1.52;;
4812;SDS011;2420;51.202;8.698;2023-07-20T14:58:35;1.88;;;1.65;;
4812;SDS011;2420;51.202;8.698;2023-07-20T15:01:01;1.70;;;1.55;;
4812;SDS011;2420;51.202;8.698;2023-07-20T15:03:27;1.83;;;1.70;;
4812;SDS011;2420;51.202;8.698;2023-07-20T15:05:56;1.70;;;1.60;;
4812;SDS011;2420;51.202;8.698;2023-07-20T15:08:21;1.60;;;1.50;;
4812;SDS011;2420;51.202;8.698;2023-07-20T15:10:48;1.65;;;1.55;;
4812;SDS011;2420;51.202;8.698;2023-07-20T15:13:13;3.40;;;1.90;;
4812;SDS011;2420;51.202;8.698;2023-07-20T15:15:39;1.70;;;1.60;;
4812;SDS011;2420;51.202;8.698;2023-07-20T15:18:05;1.65;;;1.55;;
4812;SDS011;2420;51.202;8.698;2023-07-20T15:20:31;1.85;;;1.70;;
4812;SDS011;2420;51.202;8.698;2023-07-20T15:22:58;1.60;;;1.50;;
4812;SDS011;2420;51.202;8.698;2023-07-20T15:25:23;2.42;;;1.60;;
4812;SDS011;2420;51.202;8.698;2023-07-20T15:27:49;1.70;;;1.60;;
4812;SDS011;2420;51.202;8.698;2023-07-20T15:30:15;1.70;;;1.60;;
4812;SDS011;2420;51.202;8.698;2023-07-20T15:32:40;1.90;;;1.55;;